Time;durP1;ratioP1;P1;durP2;ratioP2;P2;SDS_P1;SDS_P2;PMS_P1;PMS_P2;Temp;Humidity;BMP_temperature;BMP_pressure;BME280_temperature;BME280_humidity;BME280_pressure;Samples;Min_cycle;Max_cycle;Signal;HPM_P1;HPM_P2
2021/11/14 00:00:27;;;;;;;9.35;5.97;;;;;;;8.67;92.61;101889.13;4988085;28;20109;-61
2021/11/14 00:02:54;;;;;;;11.40;6.80;;;;;;;8.67;92.64;101895.31;4988134;28;20030;-61
2021/11/14 00:05:20;;;;;;;9.30;5.85;;;;;;;8.66;92.83;101888.31;5055431;28;20080;-61
2021/11/14 00:07:46;;;;;;;6.87;6.00;;;;;;;8.66;92.65;101898.94;4988115;28;20470;-61
2021/11/14 00:10:11;;;;;;;7.45;6.55;;;;;;;8.65;92.81;101897.22;4988092;28;20290;-61
2021/11/14 00:12:39;;;;;;;9.95;6.97;;;;;;;8.67;92.69;101903.28;4988065;28;20022;-61
2021/11/14 00:15:07;;;;;;;7.00;6.28;;;;;;;8.69;92.82;101904.00;4988130;28;20201;-61
2021/11/14 00:17:33;;;;;;;7.82;5.90;;;;;;;8.69;93.13;101905.81;4987910;28;20019;-61
2021/11/14 00:20:01;;;;;;;6.55;5.78;;;;;;;8.67;92.93;101900.63;4988225;28;20033;-61
2021/11/14 00:22:27;;;;;;;6.05;5.45;;;;;;;8.68;92.79;101909.44;4988154;28;20033;-61
2021/11/14 00:24:52;;;;;;;8.98;5.45;;;;;;;8.68;92.97;101907.66;4987888;28;20027;-60
2021/11/14 00:27:18;;;;;;;8.43;5.93;;;;;;;8.70;92.81;101912.84;4987637;28;20561;-61
2021/11/14 00:29:43;;;;;;;6.88;6.10;;;;;;;8.72;92.77;101924.19;5014049;28;20035;-66
2021/11/14 00:32:09;;;;;;;9.02;5.75;;;;;;;8.72;92.85;101925.06;5094071;28;20158;-61
2021/11/14 00:34:36;;;;;;;7.95;6.32;;;;;;;8.72;93.01;101924.19;5093898;28;20486;-61
2021/11/14 00:37:02;;;;;;;8.50;6.53;;;;;;;8.71;92.68;101927.84;5094075;28;20093;-60
2021/11/14 00:39:27;;;;;;;7.90;6.05;;;;;;;8.70;92.83;101932.28;5094080;28;20045;-61
2021/11/14 00:41:53;;;;;;;10.37;6.23;;;;;;;8.70;92.64;101924.31;5093770;28;20490;-60
2021/11/14 00:44:18;;;;;;;7.32;6.05;;;;;;;8.68;92.67;101923.59;5093192;28;20024;-61
2021/11/14 00:46:45;;;;;;;8.60;6.20;;;;;;;8.68;92.66;101922.72;5094027;28;20028;-61
2021/11/14 00:49:10;;;;;;;;;;;;;;;8.64;92.76;101928.28;5094395;28;20028;-61
2021/11/14 00:51:36;;;;;;;7.22;6.07;;;;;;;8.63;92.91;101926.56;5093672;28;19911;-61
2021/11/14 00:54:05;;;;;;;7.67;6.20;;;;;;;8.63;92.71;101931.88;5093738;28;20073;-61
2021/11/14 00:56:30;;;;;;;10.00;6.85;;;;;;;8.64;92.77;101920.31;5093439;28;20296;-60
2021/11/14 00:58:55;;;;;;;8.77;6.77;;;;;;;8.65;92.88;101923.81;5093203;28;20024;-61
2021/11/14 01:01:22;;;;;;;7.93;6.60;;;;;;;8.67;93.08;101924.56;4990902;28;20031;-61
2021/11/14 01:03:48;;;;;;;9.68;6.57;;;;;;;8.67;93.07;101924.56;4990668;28;20026;-61
2021/11/14 01:06:14;;;;;;;9.68;7.25;;;;;;;8.69;93.12;101927.94;4990635;28;20037;-60
2021/11/14 01:08:40;;;;;;;11.65;6.97;;;;;;;8.70;93.18;101932.28;4990755;28;20022;-61
2021/11/14 01:11:08;;;;;;;9.18;7.20;;;;;;;8.71;93.51;101934.00;4990767;28;20087;-61
2021/11/14 01:13:35;;;;;;;10.70;7.35;;;;;;;8.70;93.03;101934.94;4990628;28;20087;-60
2021/11/14 01:16:01;;;;;;;7.72;6.75;;;;;;;8.70;92.89;101944.75;4990507;28;20056;-61
2021/11/14 01:18:27;;;;;;;8.50;6.80;;;;;;;8.70;93.14;101952.72;4990666;28;20496;-60
2021/11/14 01:20:56;;;;;;;11.13;7.07;;;;;;;8.68;92.84;101944.84;4990470;28;20058;-60
2021/11/14 01:23:22;;;;;;;10.02;7.47;;;;;;;8.69;93.07;101951.00;4990589;28;20313;-61
2021/11/14 01:25:49;;;;;;;9.93;7.57;;;;;;;8.68;93.04;101955.47;5034508;22;20040;-60
2021/11/14 01:28:15;;;;;;;7.35;6.68;;;;;;;8.68;93.14;101959.94;5113564;28;20055;-63
2021/11/14 01:30:43;;;;;;;8.77;6.90;;;;;;;8.66;92.95;101957.38;5113154;28;20023;-61
2021/11/14 01:33:10;;;;;;;11.45;7.40;;;;;;;8.67;93.15;101960.88;5113527;28;20431;-61
2021/11/14 01:35:35;;;;;;;12.25;7.95;;;;;;;8.67;93.13;101959.09;5113344;28;20068;-61
2021/11/14 01:38:04;;;;;;;9.45;7.30;;;;;;;8.67;93.06;101958.22;5113318;28;20024;-61
2021/11/14 01:40:35;;;;;;;10.13;7.53;;;;;;;8.66;92.96;101959.22;5113041;28;20084;-61
2021/11/14 01:43:01;;;;;;;9.52;7.70;;;;;;;8.67;92.99;101959.09;5113122;28;20088;-61
2021/11/14 01:45:27;;;;;;;13.93;7.25;;;;;;;8.70;93.01;101966.00;5094529;28;20493;-61
2021/11/14 01:47:53;;;;;;;11.45;7.93;;;;;;;8.71;93.15;101973.03;5095089;28;20059;-61
2021/11/14 01:50:19;;;;;;;11.30;7.72;;;;;;;8.71;92.92;101968.53;5113093;28;20076;-61
2021/11/14 01:52:47;;;;;;;11.68;7.70;;;;;;;8.70;92.96;101974.81;5113028;28;20024;-61
2021/11/14 01:55:16;;;;;;;9.73;7.90;;;;;;;8.71;93.06;101976.50;5112904;28;20059;-62
2021/11/14 01:57:41;;;;;;;11.30;7.90;;;;;;;8.70;93.26;101980.13;5112744;28;20027;-61
2021/11/14 02:00:11;;;;;;;8.70;7.28;;;;;;;8.69;93.08;101980.25;5113054;28;20619;-61
2021/11/14 02:02:36;;;;;;;9.93;7.80;;;;;;;8.68;93.01;101983.84;5112635;28;20474;-61
2021/11/14 02:05:03;;;;;;;9.00;7.70;;;;;;;8.68;93.16;101987.38;5112756;28;20026;-61
2021/11/14 02:07:29;;;;;;;;;;;;;;;8.68;93.05;101987.38;5095148;28;20028;-61
2021/11/14 02:09:55;;;;;;;10.73;7.03;;;;;;;8.66;93.31;101989.28;5094296;28;19999;-61
2021/11/14 02:12:20;;;;;;;8.05;6.78;;;;;;;8.64;92.97;101996.50;5112611;28;20587;-61
2021/11/14 02:14:46;;;;;;;11.13;8.17;;;;;;;8.62;93.21;101999.28;5112771;28;20714;-61
2021/11/14 02:17:11;;;;;;;9.70;8.03;;;;;;;8.60;93.03;101998.56;5112526;28;20024;-61
2021/11/14 02:19:36;;;;;;;9.73;7.60;;;;;;;8.58;92.89;101992.50;5112587;28;20024;-61
2021/11/14 02:22:03;;;;;;;12.10;8.67;;;;;;;8.57;93.03;101998.75;5112458;28;20104;-62
2021/11/14 02:24:28;;;;;;;15.15;8.70;;;;;;;8.56;93.14;102002.41;5112386;28;20269;-62
2021/11/14 02:26:54;;;;;;;10.83;7.57;;;;;;;8.56;93.06;102014.81;5112071;28;20051;-61
2021/11/14 02:29:19;;;;;;;10.37;7.47;;;;;;;8.55;93.14;102010.44;5112261;28;20291;-62
2021/11/14 02:31:46;;;;;;;9.77;7.80;;;;;;;8.56;93.02;102020.13;5112029;28;20330;-62
2021/11/14 02:34:12;;;;;;;10.82;8.93;;;;;;;8.57;93.21;102016.53;5112303;28;20035;-65
2021/11/14 02:36:38;;;;;;;12.40;9.03;;;;;;;8.59;93.26;102023.41;5112354;28;20573;-64
2021/11/14 02:39:04;;;;;;;;;;;;;;;8.61;93.44;102020.66;5112486;28;20156;-62
2021/11/14 02:41:30;;;;;;;12.40;8.90;;;;;;;8.62;93.25;102025.00;5111883;28;20330;-61
2021/11/14 02:43:55;;;;;;;12.27;8.93;;;;;;;8.63;93.28;102026.72;5112010;28;20027;-61
2021/11/14 02:46:21;;;;;;;13.43;8.60;;;;;;;8.62;92.95;102031.16;5111896;28;20028;-61
2021/11/14 02:48:47;;;;;;;10.85;9.35;;;;;;;8.63;93.49;102030.22;5093561;28;20019;-65
2021/11/14 02:51:20;;;;;;;11.60;9.43;;;;;;;8.65;93.43;102035.41;5110626;28;20038;-61
2021/11/14 02:53:46;;;;;;;12.18;9.32;;;;;;;8.66;93.40;102034.47;5111750;28;20032;-61
2021/11/14 02:56:13;;;;;;;11.93;10.20;;;;;;;8.67;93.41;102032.63;5111626;28;20059;-61
2021/11/14 02:58:40;;;;;;;11.02;9.15;;;;;;;8.66;93.31;102036.28;5111704;28;20025;-61
2021/11/14 03:01:19;;;;;;;11.82;10.00;;;;;;;8.66;93.47;102026.50;5111686;28;20059;-61
2021/11/14 03:03:46;;;;;;;13.00;9.93;;;;;;;8.66;93.44;102039.78;5111359;28;20024;-62
2021/11/14 03:06:12;;;;;;;14.18;10.85;;;;;;;8.66;93.41;102036.28;5111618;28;20514;-65
2021/11/14 03:08:38;;;;;;;17.13;11.48;;;;;;;8.63;93.48;102035.53;5111821;28;20103;-61
2021/11/14 03:11:05;;;;;;;14.77;11.40;;;;;;;8.64;93.37;102039.88;5111597;28;20031;-61
2021/11/14 03:13:31;;;;;;;15.68;11.68;;;;;;;8.65;93.37;102043.38;5111394;28;20348;-61
2021/11/14 03:16:01;;;;;;;16.25;11.38;;;;;;;8.64;93.48;102047.00;5111396;28;20479;-63
2021/11/14 03:18:26;;;;;;;14.43;11.20;;;;;;;8.65;93.88;102046.03;5111241;28;20466;-61
2021/11/14 03:20:53;;;;;;;15.05;11.90;;;;;;;8.64;93.54;102050.53;5111322;28;20076;-62
2021/11/14 03:23:20;;;;;;;15.40;11.50;;;;;;;8.66;93.69;102057.53;5111365;28;20051;-61
2021/11/14 03:25:46;;;;;;;14.48;11.68;;;;;;;8.66;93.72;102061.03;5110982;28;20486;-66
2021/11/14 03:28:12;;;;;;;19.05;12.60;;;;;;;8.65;93.75;102064.63;5110552;28;20093;-61
2021/11/14 03:30:37;;;;;;;14.02;11.20;;;;;;;8.67;93.59;102064.53;5111579;28;20102;-61
2021/11/14 03:33:05;;;;;;;12.90;10.90;;;;;;;8.68;93.73;102066.22;5111207;28;20589;-60
2021/11/14 03:35:43;;;;;;;14.73;11.52;;;;;;;8.68;93.76;102066.22;5092960;28;20278;-61
2021/11/14 03:38:11;;;;;;;14.15;11.73;;;;;;;8.70;93.73;102077.63;5111381;28;20039;-61
2021/11/14 03:40:37;;;;;;;13.57;11.43;;;;;;;8.68;93.72;102075.06;5111051;28;20039;-61
2021/11/14 03:43:03;;;;;;;15.80;11.60;;;;;;;8.69;93.73;102078.56;5110891;28;20053;-62
2021/11/14 03:45:28;;;;;;;14.18;11.25;;;;;;;8.69;93.85;102078.56;5111034;28;20020;-61
2021/11/14 03:47:54;;;;;;;13.68;11.35;;;;;;;8.70;93.70;102080.28;5092579;28;20016;-62
2021/11/14 03:50:19;;;;;;;14.27;11.07;;;;;;;8.70;93.73;102082.94;5110647;28;20036;-61
2021/11/14 03:52:44;;;;;;;13.70;11.43;;;;;;;8.73;93.84;102080.91;5111063;28;20051;-62
2021/11/14 03:55:10;;;;;;;15.83;11.50;;;;;;;8.71;93.79;102085.47;5110743;28;20398;-61
2021/11/14 03:57:39;;;;;;;12.95;10.77;;;;;;;8.71;93.89;102087.28;5110768;28;20675;-61
2021/11/14 04:00:10;;;;;;;13.75;10.82;;;;;;;8.71;93.82;102087.28;5111062;28;20028;-61
2021/11/14 04:02:36;;;;;;;14.80;11.20;;;;;;;8.70;93.71;102086.44;5110959;28;20463;-61
2021/11/14 04:05:01;;;;;;;15.33;11.40;;;;;;;8.70;93.69;102091.75;5113428;28;20031;-61
2021/11/14 04:07:29;;;;;;;15.03;11.37;;;;;;;8.70;93.75;102091.75;5115189;28;20385;-62
2021/11/14 04:09:54;;;;;;;16.40;11.52;;;;;;;8.71;93.78;102097.94;5115001;28;20460;-65
2021/11/14 04:12:19;;;;;;;14.77;11.10;;;;;;;8.72;93.81;102099.59;5114818;28;20039;-62
2021/11/14 04:14:45;;;;;;;18.10;12.13;;;;;;;8.73;93.59;102099.53;5115039;28;20023;-62
2021/11/14 04:17:10;;;;;;;17.10;11.27;;;;;;;8.73;93.80;102107.50;5114845;28;20030;-62
2021/11/14 04:19:35;;;;;;;17.73;11.77;;;;;;;8.73;93.86;102106.63;5114680;28;20273;-63
2021/11/14 04:22:01;;;;;;;18.47;13.13;;;;;;;8.74;93.89;102108.34;5096590;28;20027;-63
2021/11/14 04:24:26;;;;;;;17.80;11.98;;;;;;;8.75;93.88;102110.03;5114891;28;20019;-62
2021/11/14 04:26:52;;;;;;;17.03;11.00;;;;;;;8.75;93.83;102108.22;5114271;28;20410;-63
2021/11/14 04:29:17;;;;;;;19.00;11.63;;;;;;;8.76;93.95;102123.22;5114617;28;20019;-63
2021/11/14 04:31:43;;;;;;;17.27;12.40;;;;;;;8.75;93.84;102116.19;5114824;28;20028;-62
2021/11/14 04:34:08;;;;;;;17.43;11.73;;;;;;;8.76;93.98;102120.56;5114772;28;20382;-63
2021/11/14 04:36:33;;;;;;;14.40;10.40;;;;;;;8.78;93.88;102129.25;5114456;28;20627;-63
2021/11/14 04:38:59;;;;;;;19.00;13.00;;;;;;;8.79;93.94;102122.97;5114485;28;20031;-66
2021/11/14 04:41:24;;;;;;;20.07;12.30;;;;;;;8.79;93.90;102122.16;5114336;28;20562;-62
2021/11/14 04:43:49;;;;;;;21.77;11.80;;;;;;;8.80;93.83;102127.34;5114262;28;20031;-62
2021/11/14 04:46:15;;;;;;;22.20;12.57;;;;;;;8.80;94.04;102130.00;5114319;28;20024;-62
2021/11/14 04:48:40;;;;;;;20.23;11.40;;;;;;;8.81;93.96;102130.84;5114436;28;20126;-62
2021/11/14 04:51:06;;;;;;;19.17;12.70;;;;;;;8.81;93.82;102133.50;5114091;28;20023;-62
2021/11/14 04:53:31;;;;;;;23.77;12.03;;;;;;;8.83;93.99;102144.88;5114054;28;20019;-62
2021/11/14 04:55:57;;;;;;;20.03;11.53;;;;;;;8.83;94.02;102139.56;5114247;28;20073;-62
2021/11/14 04:58:22;;;;;;;19.73;11.77;;;;;;;8.82;93.93;102145.84;5114160;28;20055;-63
2021/11/14 05:00:51;;;;;;;23.57;12.03;;;;;;;8.83;93.98;102144.88;5113982;28;20034;-63
2021/11/14 05:03:17;;;;;;;19.55;11.65;;;;;;;8.83;93.76;102144.06;5114073;28;20370;-62
2021/11/14 05:05:43;;;;;;;;;;;;;;;8.81;93.72;102146.78;5114242;28;20039;-62
2021/11/14 05:08:10;;;;;;;19.88;11.82;;;;;;;8.81;93.88;102146.78;5114101;28;19918;-64
2021/11/14 05:10:36;;;;;;;19.05;11.93;;;;;;;8.80;93.83;102145.97;5113833;28;20466;-61
2021/11/14 05:13:02;;;;;;;23.75;12.50;;;;;;;8.80;93.86;102158.41;5113740;28;20023;-62
2021/11/14 05:15:28;;;;;;;19.98;12.27;;;;;;;8.80;93.92;102151.28;5113414;28;20040;-62
2021/11/14 05:17:53;;;;;;;20.80;11.30;;;;;;;8.80;93.95;102147.78;5113841;28;20468;-63
2021/11/14 05:20:20;;;;;;;20.43;12.00;;;;;;;8.80;93.81;102145.97;5113673;28;20049;-63
2021/11/14 05:22:46;;;;;;;19.17;10.27;;;;;;;8.82;93.65;102153.81;5113369;28;20598;-62
2021/11/14 05:25:11;;;;;;;19.70;11.33;;;;;;;8.83;93.60;102163.50;5121042;22;20038;-62
2021/11/14 05:27:37;;;;;;;18.80;10.63;;;;;;;8.82;93.69;102168.94;5092589;28;20395;-62
2021/11/14 05:30:05;;;;;;;20.13;11.18;;;;;;;8.79;93.85;102160.19;5093092;28;20027;-62
2021/11/14 05:32:30;;;;;;;18.52;10.73;;;;;;;8.78;93.67;102170.94;5092926;28;20390;-63
2021/11/14 05:34:56;;;;;;;23.48;11.63;;;;;;;8.76;93.82;102170.19;5093187;28;20103;-62
2021/11/14 05:37:21;;;;;;;23.50;11.95;;;;;;;8.74;93.86;102172.97;5092933;28;20047;-67
2021/11/14 05:39:46;;;;;;;24.60;11.80;;;;;;;8.74;93.89;102183.59;5093020;28;20024;-62
2021/11/14 05:42:12;;;;;;;20.37;11.07;;;;;;;8.74;93.87;102185.41;5092914;28;20031;-62
2021/11/14 05:44:37;;;;;;;22.42;11.57;;;;;;;8.75;93.96;102190.63;5092917;28;20026;-63
2021/11/14 05:47:03;;;;;;;20.60;11.63;;;;;;;8.74;94.00;102188.91;5093094;28;20055;-64
2021/11/14 05:49:29;;;;;;;21.48;11.20;;;;;;;8.74;93.85;102196.88;5092867;28;20089;-63
2021/11/14 05:51:54;;;;;;;21.93;11.40;;;;;;;8.73;93.79;102189.00;5092717;28;20028;-66
2021/11/14 05:54:20;;;;;;;25.03;11.67;;;;;;;8.72;93.75;102204.13;5092845;28;20638;-65
2021/11/14 05:56:45;;;;;;;22.77;11.30;;;;;;;8.71;93.95;102201.56;5074381;28;20039;-65
2021/11/14 06:01:57;;;;;;;20.52;11.25;;;;;;;8.70;93.83;102207.84;5092774;28;20039;-67
2021/11/14 06:06:57;;;;;;;21.02;10.30;;;;;;;8.69;93.73;102211.44;5092323;28;20103;-65
2021/11/14 06:09:23;;;;;;;20.57;10.77;;;;;;;8.67;93.75;102216.00;5092409;28;20106;-66
2021/11/14 06:11:48;;;;;;;19.67;10.32;;;;;;;8.63;93.71;102223.38;5092345;28;20246;-66
2021/11/14 06:14:14;;;;;;;17.70;9.50;;;;;;;8.60;93.70;102223.56;5092612;28;20048;-66
2021/11/14 06:16:39;;;;;;;17.65;9.02;;;;;;;8.51;93.58;102227.72;5092305;28;20035;-64
2021/11/14 06:19:05;;;;;;;20.37;9.17;;;;;;;8.42;93.47;102226.47;5092292;28;20081;-62
2021/11/14 06:21:30;;;;;;;16.98;9.35;;;;;;;8.37;93.53;102241.03;5092238;28;20024;-66
2021/11/14 06:23:55;;;;;;;20.93;10.33;;;;;;;8.29;93.55;102236.22;5091893;28;20471;-63
2021/11/14 06:26:23;;;;;;;18.80;9.57;;;;;;;8.24;93.35;102241.84;5091014;28;20055;-62
2021/11/14 06:28:48;;;;;;;16.50;9.07;;;;;;;8.20;93.41;102245.66;5091666;28;20395;-62
2021/11/14 06:31:14;;;;;;;16.53;9.17;;;;;;;8.20;93.48;102247.47;5073628;28;20024;-65
2021/11/14 06:33:39;;;;;;;21.73;10.20;;;;;;;8.19;93.55;102251.06;5092031;28;20304;-65
2021/11/14 06:36:05;;;;;;;19.98;9.30;;;;;;;8.18;93.52;102254.66;5073798;28;20036;-62
2021/11/14 06:38:30;;;;;;;17.55;9.80;;;;;;;8.18;93.58;102265.28;5091768;28;20103;-65
2021/11/14 06:40:55;;;;;;;19.67;9.33;;;;;;;8.13;93.78;102271.75;5091736;28;20056;-63
2021/11/14 06:43:21;;;;;;;16.13;8.93;;;;;;;8.09;93.56;102267.59;5091683;28;20024;-65
2021/11/14 06:45:46;;;;;;;21.37;10.20;;;;;;;8.05;93.61;102270.56;5091878;28;20107;-63
2021/11/14 06:48:11;;;;;;;18.60;9.40;;;;;;;8.02;nan;102276.91;5091686;28;20447;-63
2021/11/14 06:50:37;;;;;;;21.90;9.60;;;;;;;7.97;93.80;102282.53;5091011;28;20130;-65
2021/11/14 06:53:03;;;;;;;19.13;9.47;;;;;;;7.95;93.80;102276.47;5091494;28;20063;-63
2021/11/14 06:55:28;;;;;;;20.75;9.50;;;;;;;7.93;93.85;102283.69;5091395;28;20119;-64
2021/11/14 06:57:54;;;;;;;21.23;10.35;;;;;;;7.94;93.77;102290.69;5091443;28;20095;-64
2021/11/14 07:00:22;;;;;;;24.53;10.40;;;;;;;7.95;93.94;102286.22;5091152;28;20052;-65
2021/11/14 07:02:47;;;;;;;22.35;10.15;;;;;;;7.92;93.78;102292.59;5091291;28;20028;-65
2021/11/14 07:05:14;;;;;;;22.27;9.50;;;;;;;7.91;nan;102298.84;5091549;28;20036;-64
2021/11/14 07:07:40;;;;;;;24.87;10.33;;;;;;;7.90;93.86;102302.44;5073179;28;20047;-64
2021/11/14 07:10:07;;;;;;;30.20;12.77;;;;;;;7.90;93.79;102305.09;5091031;28;20027;-62
2021/11/14 07:12:34;;;;;;;28.50;11.40;;;;;;;7.93;93.97;102310.22;5090743;28;20085;-64
2021/11/14 07:14:59;;;;;;;26.88;11.45;;;;;;;7.92;93.96;102319.13;5090983;28;20020;-66
2021/11/14 07:17:26;;;;;;;24.50;10.67;;;;;;;7.91;94.04;102327.19;5091219;28;20559;-64
2021/11/14 07:19:53;;;;;;;23.58;10.63;;;;;;;7.91;93.83;102328.03;5091279;28;20039;-64
2021/11/14 07:22:19;;;;;;;29.48;12.20;;;;;;;7.93;94.06;102338.56;5091055;28;20042;-62
2021/11/14 07:24:44;;;;;;;30.42;12.38;;;;;;;7.93;93.96;102342.09;5090527;28;20095;-63
2021/11/14 07:27:10;;;;;;;29.70;13.38;;;;;;;7.94;94.08;102350.88;5090694;28;20491;-63
2021/11/14 07:29:35;;;;;;;36.87;13.30;;;;;;;7.98;94.00;102350.63;5091061;28;20443;-66
2021/11/14 07:32:00;;;;;;;30.30;13.27;;;;;;;8.08;94.06;102355.34;5091187;28;20039;-65
2021/11/14 07:34:26;;;;;;;33.67;13.80;;;;;;;8.13;94.17;102358.56;5090853;28;20459;-64
2021/11/14 07:36:51;;;;;;;32.60;13.98;;;;;;;8.14;94.28;102355.78;5072100;28;20043;-63
2021/11/14 07:39:17;;;;;;;32.53;13.43;;;;;;;8.20;94.15;102365.16;5090442;28;20016;-64
2021/11/14 07:41:43;;;;;;;30.33;13.33;;;;;;;8.26;94.05;102371.88;5090637;28;20028;-64
2021/11/14 07:44:09;;;;;;;;;;;;;;;8.27;93.87;102366.47;5091280;28;20032;-64
2021/11/14 07:46:34;;;;;;;29.80;14.05;;;;;;;8.34;93.86;102382.00;5090595;28;20387;-65
2021/11/14 07:48:59;;;;;;;28.10;12.73;;;;;;;8.39;93.74;102374.59;5090679;28;20165;-66
2021/11/14 07:51:25;;;;;;;28.53;14.27;;;;;;;8.41;93.59;102383.31;5090941;28;20047;-66
2021/11/14 07:53:50;;;;;;;28.57;13.70;;;;;;;8.44;93.42;102388.44;5090600;28;20054;-64
2021/11/14 07:56:15;;;;;;;25.93;12.57;;;;;;;8.45;93.16;102387.47;5090204;28;20036;-66
2021/11/14 07:58:41;;;;;;;21.87;11.57;;;;;;;8.51;92.81;102387.13;5090588;28;20024;-65
2021/11/14 08:01:07;;;;;;;21.63;11.70;;;;;;;8.51;92.16;102395.09;5090613;28;20124;-65
2021/11/14 08:03:32;;;;;;;23.02;12.38;;;;;;;8.56;91.83;102400.09;5090732;28;20479;-66
2021/11/14 08:06:00;;;;;;;18.75;11.00;;;;;;;8.63;91.93;102399.59;5090803;28;20021;-65
2021/11/14 08:08:25;;;;;;;21.85;12.25;;;;;;;8.68;91.51;102403.75;5090577;28;20436;-65
2021/11/14 08:10:50;;;;;;;22.93;12.13;;;;;;;8.66;90.80;102403.03;5090359;28;20077;-66
2021/11/14 08:13:16;;;;;;;17.70;11.50;;;;;;;8.70;90.51;102409.84;5090558;28;20031;-65
2021/11/14 08:15:41;;;;;;;18.73;11.67;;;;;;;8.70;89.93;102410.69;5090463;28;20025;-63
2021/11/14 08:18:06;;;;;;;23.10;12.40;;;;;;;8.74;90.11;102411.34;5090659;28;20077;-65
2021/11/14 08:20:33;;;;;;;19.20;12.90;;;;;;;8.76;89.70;102412.06;5090599;28;20081;-64
2021/11/14 08:23:04;;;;;;;22.38;12.50;;;;;;;8.82;89.59;102419.66;5090572;28;20158;-65
2021/11/14 08:25:30;;;;;;;22.17;12.60;;;;;;;8.83;89.80;102421.34;5077393;28;20058;-66
2021/11/14 08:27:57;;;;;;;24.48;13.60;;;;;;;8.85;89.52;102418.59;5007588;28;20022;-66
2021/11/14 08:30:23;;;;;;;21.58;12.18;;;;;;;8.89;89.51;102412.13;5007390;28;20026;-65
2021/11/14 08:32:49;;;;;;;22.83;12.35;;;;;;;8.89;89.38;102418.31;5007518;28;20488;-66
2021/11/14 08:35:17;;;;;;;22.98;12.63;;;;;;;8.86;88.92;102417.66;5007493;28;20030;-65
2021/11/14 08:37:42;;;;;;;23.00;12.98;;;;;;;8.86;89.35;102426.47;5007608;28;20029;-66
2021/11/14 08:40:09;;;;;;;23.25;13.15;;;;;;;8.90;89.29;102424.47;5007708;28;20026;-65
2021/11/14 08:42:34;;;;;;;22.02;11.98;;;;;;;8.92;89.08;102434.03;5007019;28;20505;-64
2021/11/14 08:45:00;;;;;;;22.10;12.80;;;;;;;8.97;88.71;102426.63;5007358;28;20049;-65
2021/11/14 08:47:25;;;;;;;20.00;12.15;;;;;;;8.94;88.65;102433.94;5007320;28;20465;-64
2021/11/14 08:49:51;;;;;;;21.93;12.40;;;;;;;8.98;88.70;102440.75;5008043;28;20033;-64
2021/11/14 08:52:16;;;;;;;22.47;12.87;;;;;;;8.97;88.35;102434.59;5010975;28;20418;-64
2021/11/14 08:54:43;;;;;;;24.73;13.00;;;;;;;8.97;88.68;102437.25;5010625;28;20045;-64
2021/11/14 08:57:09;;;;;;;21.20;11.93;;;;;;;9.02;89.17;102436.97;4993187;28;20304;-64
2021/11/14 08:59:34;;;;;;;;;;;;;;;9.08;89.12;102438.34;5011166;28;20389;-65
2021/11/14 09:02:01;;;;;;;21.88;11.88;;;;;;;9.14;88.79;102441.44;4986810;28;19922;-64
2021/11/14 09:04:27;;;;;;;21.00;12.15;;;;;;;9.20;88.45;102442.84;5010352;28;20022;-65
2021/11/14 09:06:55;;;;;;;21.45;12.77;;;;;;;9.26;88.15;102437.09;5010382;28;20029;-70
2021/11/14 09:09:22;;;;;;;23.92;13.02;;;;;;;9.29;87.62;102452.84;5010679;28;20022;-69
2021/11/14 09:11:48;;;;;;;24.42;13.43;;;;;;;9.34;87.12;102454.34;5010189;28;20393;-69
2021/11/14 09:14:14;;;;;;;;;;;;;;;9.32;87.42;102461.59;5010900;28;20026;-69
2021/11/14 09:16:40;;;;;;;23.75;13.75;;;;;;;9.27;87.73;102460.09;5010383;28;19920;-69
2021/11/14 09:19:08;;;;;;;22.85;13.80;;;;;;;9.26;87.40;102457.56;5010197;28;20013;-68
2021/11/14 09:21:35;;;;;;;25.80;13.95;;;;;;;9.25;87.17;102459.34;5010332;28;20133;-70
2021/11/14 09:24:00;;;;;;;23.55;13.60;;;;;;;9.32;87.34;102458.94;5010449;28;20029;-69
2021/11/14 09:26:26;;;;;;;20.92;13.23;;;;;;;9.38;86.79;102458.53;5017931;23;20057;-68
2021/11/14 09:28:51;;;;;;;21.05;13.32;;;;;;;9.45;86.65;102459.81;5010095;28;20038;-68
2021/11/14 09:31:17;;;;;;;23.38;14.10;;;;;;;9.53;86.46;102462.78;5010121;28;20385;-71
2021/11/14 09:33:44;;;;;;;19.97;12.77;;;;;;;9.60;85.87;102473.84;5010530;28;20026;-70
2021/11/14 09:36:10;;;;;;;23.40;13.75;;;;;;;9.64;85.83;102481.53;5010236;28;20025;-70
2021/11/14 09:38:36;;;;;;;;;;;;;;;9.72;85.88;102475.69;5010768;28;20058;-68
2021/11/14 09:41:03;;;;;;;22.27;13.30;;;;;;;9.69;84.16;102481.25;5010050;28;19949;-70
2021/11/14 09:43:29;;;;;;;23.25;14.10;;;;;;;9.63;84.01;102482.50;5009720;28;20108;-68
2021/11/14 09:45:56;;;;;;;22.50;13.13;;;;;;;9.64;84.66;102492.19;5009963;28;20105;-70
2021/11/14 09:48:22;;;;;;;20.95;13.63;;;;;;;9.66;84.83;102501.88;5009794;28;20046;-68
2021/11/14 09:50:52;;;;;;;21.98;13.57;;;;;;;9.66;84.16;102494.75;5009849;28;20409;-69
2021/11/14 09:53:18;;;;;;;19.85;12.60;;;;;;;9.74;84.38;102502.19;5009338;28;20040;-64
2021/11/14 09:55:43;;;;;;;20.15;12.75;;;;;;;9.80;84.08;102504.47;5009317;28;20033;-65
2021/11/14 09:58:09;;;;;;;20.05;12.95;;;;;;;9.85;84.10;102510.31;5009551;28;20480;-65
2021/11/14 10:00:38;;;;;;;19.43;12.60;;;;;;;9.91;84.25;102515.19;5009504;28;20034;-64
2021/11/14 10:03:05;;;;;;;20.40;12.93;;;;;;;9.96;83.81;102514.91;5009585;28;20025;-65
2021/11/14 10:05:32;;;;;;;19.17;12.70;;;;;;;9.95;84.16;102515.84;5009514;28;20544;-64
2021/11/14 10:07:59;;;;;;;19.98;12.80;;;;;;;9.96;83.42;102526.38;5009658;28;20114;-65
2021/11/14 10:10:29;;;;;;;20.15;13.07;;;;;;;9.96;83.05;102521.06;5009685;28;20075;-66
2021/11/14 10:12:55;;;;;;;20.90;13.25;;;;;;;9.95;82.62;102522.03;5009504;28;20581;-65
2021/11/14 10:15:23;;;;;;;21.85;13.02;;;;;;;9.93;83.90;102517.78;5009362;28;20457;-66
2021/11/14 10:17:51;;;;;;;22.08;13.57;;;;;;;9.86;83.15;102524.47;5009604;28;20037;-66
2021/11/14 10:20:26;;;;;;;20.52;12.52;;;;;;;9.84;83.42;102526.41;5009521;28;20030;-66
2021/11/14 10:22:56;;;;;;;19.73;11.77;;;;;;;9.88;83.45;102519.91;5009435;28;20032;-65
2021/11/14 10:25:22;;;;;;;19.65;11.88;;;;;;;9.92;84.03;102521.41;5009169;28;20053;-65
2021/11/14 10:27:53;;;;;;;20.27;13.13;;;;;;;9.91;83.97;102527.66;5009085;28;20132;-64
2021/11/14 10:30:24;;;;;;;18.73;11.32;;;;;;;9.92;82.96;102526.72;5008964;28;20022;-65
2021/11/14 10:32:55;;;;;;;20.60;12.60;;;;;;;9.89;82.96;102532.25;5009099;28;20022;-65
2021/11/14 10:35:22;;;;;;;19.33;12.07;;;;;;;9.85;83.08;102533.41;5009260;28;20105;-65
2021/11/14 10:37:48;;;;;;;18.58;11.30;;;;;;;9.85;83.39;102542.28;5009020;28;20358;-65
2021/11/14 10:40:27;;;;;;;20.65;12.85;;;;;;;9.83;83.50;102546.00;5009186;28;20037;-65
2021/11/14 10:42:55;;;;;;;18.63;11.80;;;;;;;9.80;84.20;102545.22;5009050;28;20426;-66
2021/11/14 10:45:22;;;;;;;18.70;11.23;;;;;;;9.78;84.55;102548.97;5008604;28;20495;-64
2021/11/14 10:48:02;;;;;;;17.98;11.70;;;;;;;9.75;83.67;102550.00;5008907;28;20075;-65
2021/11/14 10:50:31;;;;;;;18.30;11.20;;;;;;;9.73;83.11;102549.28;4992187;28;20037;-64
2021/11/14 10:53:03;;;;;;;18.67;12.00;;;;;;;9.74;82.74;102552.78;5008822;28;20389;-64
2021/11/14 10:55:52;;;;;;;18.20;12.35;;;;;;;9.77;83.25;102561.44;4991034;28;20066;-64
2021/11/14 10:58:21;;;;;;;42.10;15.65;;;;;;;9.83;83.50;102564.63;5008899;28;20062;-65
2021/11/14 11:00:48;;;;;;;16.90;11.48;;;;;;;9.83;82.51;102562.81;5008513;28;20496;-65
2021/11/14 11:03:14;;;;;;;18.05;11.75;;;;;;;9.83;83.19;102570.78;5008722;28;20026;-64
2021/11/14 11:05:41;;;;;;;18.88;11.13;;;;;;;9.83;82.60;102573.47;5008818;28;20025;-65
2021/11/14 11:08:10;;;;;;;16.58;10.43;;;;;;;9.85;82.72;102563.56;5008745;28;20018;-67
2021/11/14 11:10:41;;;;;;;17.63;11.07;;;;;;;9.76;82.84;102565.03;5008928;28;20017;-65
2021/11/14 11:13:10;;;;;;;15.50;10.48;;;;;;;9.76;82.35;102567.69;5008374;28;20472;-64
2021/11/14 11:15:45;;;;;;;16.58;10.70;;;;;;;9.83;82.18;102559.31;5008860;28;20049;-65
2021/11/14 11:18:13;;;;;;;16.85;11.02;;;;;;;9.86;83.41;102564.41;5008514;28;20025;-64
2021/11/14 11:20:40;;;;;;;16.23;10.40;;;;;;;9.91;83.17;102563.13;5008453;28;20018;-65
2021/11/14 11:23:10;;;;;;;17.50;10.88;;;;;;;9.91;81.92;102564.97;5008602;28;20026;-64
2021/11/14 11:25:47;;;;;;;17.05;10.40;;;;;;;9.88;81.61;102568.69;5008406;28;20037;-65